Time,TemperatureF,DewpointF,PressureIn,WindDirection,WindDirectionDegrees,WindSpeedMPH,WindSpeedGustMPH,Humidity,HourlyPrecipIn,Conditions,Clouds,dailyrainin,SolarRadiationWatts/m^2,SoftwareType,DateUTC
2013-05-01 00:02:00,69.0,46.0,-100.00,SSE,150,5.0,11.0,43,0.00,,,-99.99,0.000000,,2013-05-01 05:02:00,
2013-05-01 00:11:00,69.0,46.0,-100.00,SSE,150,5.0,11.0,43,0.00,,,-99.99,0.000000,,2013-05-01 05:11:00,
2013-05-01 00:32:00,68.0,48.0,-100.00,SE,143,5.0,10.0,48,0.00,,,-99.99,0.000000,,2013-05-01 05:32:00,
2013-05-01 00:42:00,68.0,48.0,-100.00,SE,143,5.0,10.0,48,0.00,,,-99.99,0.000000,,2013-05-01 05:42:00,
2013-05-01 00:52:00,68.0,48.0,-100.00,SE,143,5.0,10.0,48,0.00,,,-99.99,0.000000,,2013-05-01 05:52:00,
2013-05-01 01:02:00,68.0,48.0,-100.00,SE,143,5.0,10.0,48,0.00,,,-99.99,0.000000,,2013-05-01 06:02:00,
2013-05-01 01:12:00,68.0,48.0,-100.00,SE,143,5.0,10.0,48,0.00,,,-99.99,0.000000,,2013-05-01 06:12:00,
2013-05-01 01:32:00,65.0,48.0,-100.00,SE,146,4.0,9.0,54,0.00,,,-99.99,0.000000,,2013-05-01 06:32:00,
2013-05-01 01:42:00,65.0,48.0,-100.00,SE,146,4.0,9.0,54,0.00,,,-99.99,0.000000,,2013-05-01 06:42:00,
2013-05-01 01:52:00,65.0,48.0,-100.00,SE,146,4.0,9.0,54,0.00,,,-99.99,0.000000,,2013-05-01 06:52:00,
2013-05-01 02:01:00,65.0,48.0,-100.00,SE,146,4.0,9.0,54,0.00,,,-99.99,0.000000,,2013-05-01 07:01:00,
2013-05-01 02:11:00,65.0,48.0,-100.00,SE,146,4.0,9.0,54,0.00,,,-99.99,0.000000,,2013-05-01 07:11:00,
2013-05-01 02:32:00,64.0,50.0,-100.00,SSE,154,3.0,8.0,60,0.00,,,0.00,0.000000,,2013-05-01 07:32:00,
2013-05-01 02:42:00,64.0,50.0,-100.00,SSE,154,3.0,8.0,60,0.00,,,0.00,0.000000,,2013-05-01 07:42:00,
2013-05-01 02:52:00,64.0,50.0,-100.00,SSE,154,3.0,8.0,60,0.00,,,0.00,0.000000,,2013-05-01 07:52:00,
2013-05-01 03:02:00,64.0,50.0,-100.00,SSE,154,3.0,8.0,60,0.00,,,0.00,0.000000,,2013-05-01 08:02:00,
2013-05-01 03:11:00,64.0,50.0,-100.00,SSE,154,3.0,8.0,60,0.00,,,0.00,0.000000,,2013-05-01 08:11:00,
2013-05-01 03:42:00,63.0,51.0,-100.00,SSE,150,3.0,6.0,66,0.00,,,0.00,0.000000,,2013-05-01 08:42:00,
2013-05-01 03:53:00,63.0,51.0,-100.00,SSE,150,3.0,6.0,66,0.00,,,0.00,0.000000,,2013-05-01 08:53:00,
2013-05-01 04:01:00,63.0,51.0,-100.00,SSE,150,3.0,6.0,66,0.00,,,0.00,0.000000,,2013-05-01 09:01:00,
2013-05-01 04:11:00,63.0,51.0,-100.00,SSE,150,3.0,6.0,66,0.00,,,0.00,0.000000,,2013-05-01 09:11:00,
2013-05-01 04:33:00,62.0,52.0,-100.00,SE,142,3.0,5.0,69,0.00,,,-99.99,0.000000,,2013-05-01 09:33:00,
2013-05-01 04:43:00,62.0,52.0,-100.00,SE,142,3.0,5.0,69,0.00,,,-99.99,0.000000,,2013-05-01 09:43:00,
2013-05-01 04:53:00,62.0,52.0,-100.00,SE,142,3.0,5.0,69,0.00,,,-99.99,0.000000,,2013-05-01 09:53:00,
2013-05-01 05:02:00,62.0,52.0,-100.00,SE,142,3.0,5.0,69,0.00,,,-99.99,0.000000,,2013-05-01 10:02:00,
2013-05-01 05:12:00,62.0,52.0,-100.00,SE,142,3.0,5.0,69,0.00,,,-99.99,0.000000,,2013-05-01 10:12:00,
2013-05-01 05:33:00,60.0,52.0,-100.00,ESE,114,3.0,5.0,74,0.00,,,-99.99,0.000000,,2013-05-01 10:33:00,
2013-05-01 05:42:00,60.0,52.0,-100.00,ESE,114,3.0,5.0,74,0.00,,,-99.99,0.000000,,2013-05-01 10:42:00,
2013-05-01 05:53:00,60.0,52.0,-100.00,ESE,114,3.0,5.0,74,0.00,,,-99.99,0.000000,,2013-05-01 10:53:00,
2013-05-01 06:02:00,60.0,52.0,-100.00,ESE,114,3.0,5.0,74,0.00,,,-99.99,0.000000,,2013-05-01 11:02:00,
2013-05-01 06:11:00,60.0,52.0,-100.00,ESE,114,3.0,5.0,74,0.00,,,-99.99,0.000000,,2013-05-01 11:11:00,
2013-05-01 06:32:00,61.0,52.0,-100.00,SE,124,4.0,7.0,73,0.00,,,-99.99,0.000000,,2013-05-01 11:32:00,
2013-05-01 06:42:00,61.0,52.0,-100.00,SE,124,4.0,7.0,73,0.00,,,-99.99,0.000000,,2013-05-01 11:42:00,
2013-05-01 06:52:00,61.0,52.0,-100.00,SE,124,4.0,7.0,73,0.00,,,-99.99,0.000000,,2013-05-01 11:52:00,
2013-05-01 07:01:00,61.0,52.0,-100.00,SE,124,4.0,7.0,73,0.00,,,-99.99,0.000000,,2013-05-01 12:01:00,
2013-05-01 07:11:00,61.0,52.0,-100.00,SE,124,4.0,7.0,73,0.00,,,-99.99,0.000000,,2013-05-01 12:11:00,
2013-05-01 08:42:00,64.0,54.0,-100.00,SE,140,4.0,7.0,69,-99.99,,,0.00,117.000000,,2013-05-01 13:42:00,
2013-05-01 08:52:00,64.0,54.0,-100.00,SE,140,4.0,7.0,69,-99.99,,,0.00,117.000000,,2013-05-01 13:52:00,
2013-05-01 09:02:00,64.0,54.0,-100.00,SE,140,4.0,7.0,69,-99.99,,,0.00,117.000000,,2013-05-01 14:02:00,
2013-05-01 09:11:00,64.0,54.0,-100.00,SE,140,4.0,7.0,69,-99.99,,,0.00,117.000000,,2013-05-01 14:11:00,
2013-05-01 09:42:00,70.0,57.0,-100.00,SE,129,6.0,9.0,63,0.00,,,-99.99,373.000000,,2013-05-01 14:42:00,
2013-05-01 09:52:00,70.0,57.0,-100.00,SE,129,6.0,9.0,63,0.00,,,-99.99,373.000000,,2013-05-01 14:52:00,
2013-05-01 10:01:00,70.0,57.0,-100.00,SE,129,6.0,9.0,63,0.00,,,-99.99,373.000000,,2013-05-01 15:01:00,
2013-05-01 10:11:00,70.0,57.0,-100.00,SE,129,6.0,9.0,63,0.00,,,-99.99,373.000000,,2013-05-01 15:11:00,
2013-05-01 10:43:00,75.0,60.0,-100.00,SE,135,4.0,9.0,59,0.00,,,-99.99,565.000000,,2013-05-01 15:43:00,
2013-05-01 10:53:00,75.0,60.0,-100.00,SE,135,4.0,9.0,59,0.00,,,-99.99,565.000000,,2013-05-01 15:53:00,
2013-05-01 11:03:00,75.0,60.0,-100.00,SE,135,4.0,9.0,59,0.00,,,-99.99,565.000000,,2013-05-01 16:03:00,
2013-05-01 11:12:00,75.0,60.0,-100.00,SE,135,4.0,9.0,59,0.00,,,-99.99,565.000000,,2013-05-01 16:12:00,
2013-05-01 11:42:00,78.0,58.0,-100.00,SSE,151,5.0,11.0,50,0.00,,,0.00,845.000000,,2013-05-01 16:42:00,
2013-05-01 11:53:00,78.0,58.0,-100.00,SSE,151,5.0,11.0,50,0.00,,,0.00,845.000000,,2013-05-01 16:53:00,
2013-05-01 12:02:00,78.0,58.0,-100.00,SSE,151,5.0,11.0,50,0.00,,,0.00,845.000000,,2013-05-01 17:02:00,
2013-05-01 12:12:00,78.0,58.0,-100.00,SSE,151,5.0,11.0,50,0.00,,,0.00,845.000000,,2013-05-01 17:12:00,
2013-05-01 12:42:00,79.0,55.0,-100.00,SE,134,8.0,14.0,43,0.00,,,-99.99,964.000000,,2013-05-01 17:42:00,
2013-05-01 12:52:00,79.0,55.0,-100.00,SE,134,8.0,14.0,43,0.00,,,-99.99,964.000000,,2013-05-01 17:52:00,
2013-05-01 13:01:00,79.0,55.0,-100.00,SE,134,8.0,14.0,43,0.00,,,-99.99,964.000000,,2013-05-01 18:01:00,
2013-05-01 13:11:00,79.0,55.0,-100.00,SE,134,8.0,14.0,43,0.00,,,-99.99,964.000000,,2013-05-01 18:11:00,
2013-05-01 14:43:00,84.0,55.0,-100.00,South,170,8.0,15.0,37,-99.99,,,0.00,1006.000000,,2013-05-01 19:43:00,
2013-05-01 14:52:00,84.0,55.0,-100.00,South,170,8.0,15.0,37,-99.99,,,0.00,1006.000000,,2013-05-01 19:52:00,
2013-05-01 15:02:00,84.0,55.0,-100.00,South,170,8.0,15.0,37,-99.99,,,0.00,1006.000000,,2013-05-01 20:02:00,
2013-05-01 15:11:00,84.0,55.0,-100.00,South,170,8.0,15.0,37,-99.99,,,0.00,1006.000000,,2013-05-01 20:11:00,
2013-05-01 15:42:00,83.0,58.0,-100.00,SE,136,7.0,15.0,42,0.00,,,0.00,770.000000,,2013-05-01 20:42:00,
2013-05-01 15:52:00,83.0,58.0,-100.00,SE,136,7.0,15.0,42,0.00,,,0.00,770.000000,,2013-05-01 20:52:00,
2013-05-01 16:01:00,83.0,58.0,-100.00,SE,136,7.0,15.0,42,0.00,,,0.00,770.000000,,2013-05-01 21:01:00,
2013-05-01 16:11:00,83.0,58.0,-100.00,SE,136,7.0,15.0,42,0.00,,,0.00,770.000000,,2013-05-01 21:11:00,
2013-05-01 16:43:00,83.0,55.0,-100.00,SE,125,8.0,15.0,39,0.00,,,-99.99,567.000000,,2013-05-01 21:43:00,
2013-05-01 16:53:00,83.0,55.0,-100.00,SE,125,8.0,15.0,39,0.00,,,-99.99,567.000000,,2013-05-01 21:53:00,
2013-05-01 17:03:00,83.0,55.0,-100.00,SE,125,8.0,15.0,39,0.00,,,-99.99,567.000000,,2013-05-01 22:03:00,
2013-05-01 17:12:00,83.0,55.0,-100.00,SE,125,8.0,15.0,39,0.00,,,-99.99,567.000000,,2013-05-01 22:12:00,
2013-05-01 17:33:00,82.0,54.0,-100.00,SSE,163,6.0,12.0,38,0.00,,,0.00,323.000000,,2013-05-01 22:33:00,
2013-05-01 17:42:00,82.0,54.0,-100.00,SSE,163,6.0,12.0,38,0.00,,,0.00,323.000000,,2013-05-01 22:42:00,
2013-05-01 17:53:00,82.0,54.0,-100.00,SSE,163,6.0,12.0,38,0.00,,,0.00,323.000000,,2013-05-01 22:53:00,
2013-05-01 18:02:00,82.0,54.0,-100.00,SSE,163,6.0,12.0,38,0.00,,,0.00,323.000000,,2013-05-01 23:02:00,
2013-05-01 18:12:00,82.0,54.0,-100.00,SSE,163,6.0,12.0,38,0.00,,,0.00,323.000000,,2013-05-01 23:12:00,
2013-05-01 18:32:00,83.0,58.0,-100.00,SE,131,6.0,11.0,42,0.00,,,0.00,263.000000,,2013-05-01 23:32:00,
2013-05-01 18:42:00,83.0,58.0,-100.00,SE,131,6.0,11.0,42,0.00,,,0.00,263.000000,,2013-05-01 23:42:00,
2013-05-01 18:52:00,83.0,58.0,-100.00,SE,131,6.0,11.0,42,0.00,,,0.00,263.000000,,2013-05-01 23:52:00,
2013-05-01 19:01:00,83.0,58.0,-100.00,SE,131,6.0,11.0,42,0.00,,,0.00,263.000000,,2013-05-02 00:01:00,
2013-05-01 19:11:00,83.0,58.0,-100.00,SE,131,6.0,11.0,42,0.00,,,0.00,263.000000,,2013-05-02 00:11:00,
2013-05-01 20:42:00,76.0,57.0,-100.00,SSE,153,5.0,10.0,51,-99.99,,,0.00,28.000000,,2013-05-02 01:42:00,
2013-05-01 20:52:00,76.0,57.0,-100.00,SSE,153,5.0,10.0,51,-99.99,,,0.00,28.000000,,2013-05-02 01:52:00,
2013-05-01 21:02:00,76.0,57.0,-100.00,SSE,153,5.0,10.0,51,-99.99,,,0.00,28.000000,,2013-05-02 02:02:00,
2013-05-01 21:12:00,76.0,57.0,-100.00,SSE,153,5.0,10.0,51,-99.99,,,0.00,28.000000,,2013-05-02 02:12:00,
2013-05-01 22:01:00,74.0,58.0,-100.00,South,173,4.0,9.0,57,0.00,,,0.00,0.000000,,2013-05-02 03:01:00,
2013-05-01 22:11:00,74.0,58.0,-100.00,South,173,4.0,9.0,57,0.00,,,0.00,0.000000,,2013-05-02 03:11:00,
2013-05-01 22:33:00,72.0,59.0,-100.00,South,188,4.0,12.0,64,0.00,,,0.00,0.000000,,2013-05-02 03:33:00,
2013-05-01 22:43:00,72.0,59.0,-100.00,South,188,4.0,12.0,64,0.00,,,0.00,0.000000,,2013-05-02 03:43:00,
2013-05-01 22:53:00,72.0,59.0,-100.00,South,188,4.0,12.0,64,0.00,,,0.00,0.000000,,2013-05-02 03:53:00,
2013-05-01 23:03:00,72.0,59.0,-100.00,South,188,4.0,12.0,64,0.00,,,0.00,0.000000,,2013-05-02 04:03:00,
2013-05-01 23:12:00,72.0,59.0,-100.00,South,188,4.0,12.0,64,0.00,,,0.00,0.000000,,2013-05-02 04:12:00,
2013-05-01 23:33:00,70.0,59.0,-100.00,South,188,5.0,10.0,69,0.00,,,0.00,0.000000,,2013-05-02 04:33:00,
2013-05-01 23:43:00,70.0,59.0,-100.00,South,188,5.0,10.0,69,0.00,,,0.00,0.000000,,2013-05-02 04:43:00,
2013-05-01 23:52:00,70.0,59.0,-100.00,South,188,5.0,10.0,69,0.00,,,0.00,0.000000,,2013-05-02 04:52:00,